createdAt,value
2022-10-24T00:00:16.646Z,99.99
2022-10-24T00:01:16.727Z,99.99
2022-10-24T00:02:16.577Z,99.99
2022-10-24T00:03:16.559Z,99.99
2022-10-24T00:04:16.655Z,99.99
2022-10-24T00:05:16.531Z,99.99
2022-10-24T00:06:16.527Z,99.99
2022-10-24T00:07:16.513Z,99.99
2022-10-24T00:08:16.530Z,99.99
2022-10-24T00:09:16.617Z,99.99
2022-10-24T00:10:16.500Z,99.99
2022-10-24T00:11:16.463Z,99.99
2022-10-24T00:12:16.490Z,99.99
2022-10-24T00:13:16.437Z,99.99
2022-10-24T00:14:17.180Z,99.99
2022-10-24T00:15:16.397Z,99.99
2022-10-24T00:16:16.406Z,99.99
2022-10-24T00:17:16.385Z,99.99
2022-10-24T00:18:16.366Z,99.99
2022-10-24T00:19:16.395Z,99.99
2022-10-24T00:20:16.473Z,99.99
2022-10-24T00:21:16.586Z,99.99
2022-10-24T00:22:16.285Z,99.99
2022-10-24T00:23:16.292Z,99.99
2022-10-24T00:24:16.266Z,99.99
2022-10-24T00:25:16.277Z,99.99
2022-10-24T00:26:16.244Z,99.99
2022-10-24T00:27:16.228Z,99.99
2022-10-24T00:28:16.267Z,99.99
2022-10-24T00:29:16.232Z,99.99
2022-10-24T00:30:16.203Z,99.99
2022-10-24T00:31:16.194Z,99.99
2022-10-24T00:32:16.165Z,99.99
2022-10-24T00:33:16.164Z,99.99
2022-10-24T00:34:16.201Z,99.99
2022-10-24T00:35:16.182Z,99.99
2022-10-24T00:36:16.132Z,99.99
2022-10-24T00:37:16.205Z,99.99
2022-10-24T00:38:16.094Z,99.99
2022-10-24T00:39:16.104Z,99.99
2022-10-24T00:40:16.062Z,99.99
2022-10-24T00:41:16.067Z,99.99
2022-10-24T00:42:16.060Z,99.99
2022-10-24T00:43:16.134Z,99.99
2022-10-24T00:44:16.020Z,99.99
2022-10-24T00:45:16.009Z,99.99
2022-10-24T00:46:15.991Z,99.99
2022-10-24T00:47:15.980Z,99.99
2022-10-24T00:48:15.970Z,99.99
2022-10-24T00:49:16.015Z,99.99
2022-10-24T00:50:16.038Z,99.99
2022-10-24T00:51:15.982Z,99.99
2022-10-24T00:52:16.692Z,99.99
2022-10-24T00:53:15.912Z,99.99
2022-10-24T00:54:15.923Z,99.99
2022-10-24T00:55:15.900Z,99.99
2022-10-24T00:56:15.857Z,99.99
2022-10-24T00:57:15.872Z,99.99
2022-10-24T00:58:15.858Z,99.99
2022-10-24T00:59:15.817Z,99.99
2022-10-24T01:00:15.809Z,99.99
2022-10-24T01:01:15.887Z,99.99
2022-10-24T01:02:15.797Z,99.99
2022-10-24T01:03:15.889Z,99.99
2022-10-24T01:04:15.759Z,99.99
2022-10-24T01:05:15.755Z,99.99
2022-10-24T01:06:15.754Z,99.99
2022-10-24T01:07:15.727Z,99.99
2022-10-24T01:08:15.712Z,99.99
2022-10-24T01:09:15.702Z,99.99
2022-10-24T01:10:15.688Z,99.99
2022-10-24T01:11:15.696Z,99.99
2022-10-24T01:12:15.696Z,99.99
2022-10-24T01:13:15.637Z,99.99
2022-10-24T01:14:15.971Z,99.99
2022-10-24T01:15:15.626Z,99.99
2022-10-24T01:16:15.722Z,99.99
2022-10-24T01:17:15.616Z,99.99
2022-10-24T01:18:15.579Z,99.99
2022-10-24T01:19:15.588Z,99.99
2022-10-24T01:20:15.555Z,99.99
2022-10-24T01:21:15.676Z,99.99
2022-10-24T01:22:15.516Z,99.99
2022-10-24T01:23:15.499Z,99.99
2022-10-24T01:24:15.503Z,99.99
2022-10-24T01:25:15.479Z,99.99
2022-10-24T01:26:15.485Z,99.99
2022-10-24T01:28:15.459Z,99.99
2022-10-24T01:29:15.555Z,99.99
2022-10-24T01:30:15.430Z,99.99
2022-10-24T01:31:15.435Z,99.99
2022-10-24T01:32:15.385Z,99.99
2022-10-24T01:33:15.416Z,99.99
2022-10-24T01:34:15.424Z,99.99
2022-10-24T01:35:15.365Z,99.99
2022-10-24T01:36:15.352Z,99.99
2022-10-24T01:37:15.324Z,99.99
2022-10-24T01:38:15.333Z,99.99
2022-10-24T01:39:15.314Z,99.99
2022-10-24T01:40:15.323Z,99.99
2022-10-24T01:41:15.291Z,99.99
2022-10-24T01:42:15.260Z,99.99
2022-10-24T01:43:15.262Z,99.99
2022-10-24T01:44:15.231Z,99.99
2022-10-24T01:45:15.233Z,99.99
2022-10-24T01:46:15.233Z,99.99
2022-10-24T01:47:15.225Z,99.99
2022-10-24T01:48:15.212Z,99.99
2022-10-24T01:49:15.172Z,99.99
2022-10-24T01:50:15.349Z,99.99
2022-10-24T01:51:15.173Z,99.99
2022-10-24T01:52:15.136Z,99.99
2022-10-24T01:53:15.150Z,99.99
2022-10-24T01:54:15.112Z,99.99
2022-10-24T01:55:15.101Z,99.99
2022-10-24T01:56:15.104Z,99.99
2022-10-24T01:57:15.070Z,99.99
2022-10-24T01:58:15.057Z,99.99
2022-10-24T01:59:15.049Z,99.99
2022-10-24T02:00:15.050Z,99.99
2022-10-24T02:01:15.084Z,99.99
2022-10-24T02:02:15.036Z,99.99
2022-10-24T02:03:15.020Z,99.99
2022-10-24T02:04:15.954Z,99.99
2022-10-24T02:05:14.996Z,99.99
2022-10-24T02:06:14.957Z,99.99
2022-10-24T02:07:14.997Z,99.99
2022-10-24T02:08:14.940Z,99.99
2022-10-24T02:09:14.919Z,99.99
2022-10-24T02:10:14.909Z,99.99
2022-10-24T02:11:14.908Z,99.99
2022-10-24T02:12:14.865Z,99.99
2022-10-24T02:13:14.868Z,99.99
2022-10-24T02:14:14.849Z,99.99
2022-10-24T02:15:14.884Z,99.99
2022-10-24T02:16:14.839Z,99.99
2022-10-24T02:17:14.816Z,99.99
2022-10-24T02:18:14.798Z,99.99
2022-10-24T02:19:14.806Z,99.99
2022-10-24T02:20:14.784Z,99.99
2022-10-24T02:21:14.781Z,99.99
2022-10-24T02:22:14.747Z,99.99
2022-10-24T02:23:14.745Z,99.99
2022-10-24T02:24:14.748Z,99.99
2022-10-24T02:25:14.716Z,99.99
2022-10-24T02:26:14.716Z,99.99
2022-10-24T02:27:14.689Z,99.99
2022-10-24T02:28:14.679Z,99.99
2022-10-24T02:29:14.664Z,99.99
2022-10-24T02:30:14.647Z,99.99
2022-10-24T02:31:14.635Z,99.99
2022-10-24T02:32:14.637Z,99.99
2022-10-24T02:33:14.615Z,99.99
2022-10-24T02:34:14.674Z,99.99
2022-10-24T02:35:14.605Z,99.99
2022-10-24T02:36:14.572Z,99.99
2022-10-24T02:37:14.554Z,99.99
2022-10-24T02:38:14.537Z,99.99
2022-10-24T02:39:14.522Z,99.99
2022-10-24T02:40:14.524Z,99.99
2022-10-24T02:41:14.525Z,99.99
2022-10-24T02:42:14.502Z,99.99
2022-10-24T02:43:14.494Z,99.99
2022-10-24T02:44:14.472Z,99.99
2022-10-24T02:45:14.462Z,99.99
2022-10-24T02:46:14.469Z,99.99
2022-10-24T02:47:14.443Z,99.99
2022-10-24T02:48:14.433Z,99.99
2022-10-24T02:49:14.401Z,99.99
2022-10-24T02:50:14.400Z,99.99
2022-10-24T02:51:14.393Z,99.99
2022-10-24T02:52:14.359Z,99.99
2022-10-24T02:53:14.351Z,99.99
2022-10-24T02:54:14.354Z,99.99
2022-10-24T02:55:14.331Z,99.99
2022-10-24T02:56:14.346Z,99.99
2022-10-24T02:57:14.300Z,99.99
2022-10-24T02:58:14.302Z,99.99
2022-10-24T02:59:14.295Z,99.99
2022-10-24T03:00:14.299Z,99.99
2022-10-24T03:01:14.397Z,99.99
2022-10-24T03:02:14.240Z,99.99
2022-10-24T03:03:14.251Z,99.99
2022-10-24T03:04:14.250Z,99.99
2022-10-24T03:05:14.547Z,99.99
2022-10-24T03:06:14.211Z,99.99
2022-10-24T03:07:14.208Z,99.99
2022-10-24T03:08:14.179Z,99.99
2022-10-24T03:09:14.158Z,99.99
2022-10-24T03:10:14.141Z,99.99
2022-10-24T03:11:14.127Z,99.99
2022-10-24T03:12:14.121Z,99.99
2022-10-24T03:13:14.122Z,99.99
2022-10-24T03:14:14.089Z,99.99
2022-10-24T03:15:14.100Z,99.99
2022-10-24T03:16:14.420Z,99.99
2022-10-24T03:17:14.057Z,99.99
2022-10-24T03:18:14.117Z,99.99
2022-10-24T03:19:14.009Z,99.99
2022-10-24T03:20:14.018Z,99.99
2022-10-24T03:21:14.028Z,99.99
2022-10-24T03:22:13.985Z,99.99
2022-10-24T03:23:13.977Z,99.99
2022-10-24T03:24:17.022Z,99.99
2022-10-24T03:25:14.950Z,99.99
2022-10-24T03:26:14.023Z,99.99
2022-10-24T03:27:13.922Z,99.99
2022-10-24T03:28:13.905Z,99.99
2022-10-24T03:29:13.915Z,99.99
2022-10-24T03:30:13.890Z,99.99
2022-10-24T03:31:13.888Z,99.99
2022-10-24T03:32:13.900Z,99.99
2022-10-24T03:33:13.846Z,99.99
2022-10-24T03:34:13.845Z,99.99
2022-10-24T03:35:14.388Z,99.99
2022-10-24T03:36:13.818Z,99.99
2022-10-24T03:37:13.807Z,99.99
2022-10-24T03:38:13.783Z,99.99
2022-10-24T03:39:13.763Z,99.99
2022-10-24T03:40:13.761Z,99.99
2022-10-24T03:41:13.763Z,99.99
2022-10-24T03:42:13.736Z,99.99
2022-10-24T03:43:13.714Z,99.99
2022-10-24T03:44:13.712Z,99.99
2022-10-24T03:45:13.693Z,99.99
2022-10-24T03:46:13.671Z,99.99
2022-10-24T03:47:13.704Z,99.99
2022-10-24T03:48:13.674Z,99.99
2022-10-24T03:49:13.644Z,99.99
2022-10-24T03:50:13.740Z,99.99
2022-10-24T03:51:13.645Z,99.99
2022-10-24T03:52:13.769Z,99.99
2022-10-24T03:53:13.586Z,99.99
2022-10-24T03:54:13.592Z,99.99
2022-10-24T03:55:13.564Z,99.99
2022-10-24T03:56:13.611Z,99.99
2022-10-24T03:57:13.560Z,99.99
2022-10-24T03:58:13.531Z,99.99
2022-10-24T03:59:13.517Z,99.99
2022-10-24T04:00:13.511Z,99.99
2022-10-24T04:01:13.567Z,99.99
2022-10-24T04:02:13.491Z,99.99
2022-10-24T04:03:13.461Z,99.99
2022-10-24T04:04:13.467Z,99.99
2022-10-24T04:05:13.477Z,99.99
2022-10-24T04:06:14.171Z,99.99
2022-10-24T04:07:13.413Z,99.99
2022-10-24T04:08:13.412Z,99.99
2022-10-24T04:09:13.400Z,99.99
2022-10-24T04:10:13.379Z,99.99
2022-10-24T04:11:13.601Z,99.99
2022-10-24T04:12:14.312Z,99.99
2022-10-24T04:13:13.343Z,99.99
2022-10-24T04:14:13.307Z,99.99
2022-10-24T04:15:13.329Z,99.99
2022-10-24T04:16:13.328Z,99.99
2022-10-24T04:17:13.347Z,99.99
2022-10-24T04:18:13.259Z,99.99
2022-10-24T04:19:13.255Z,99.99
2022-10-24T04:20:13.299Z,99.99
2022-10-24T04:21:14.453Z,99.99
2022-10-24T04:22:13.238Z,99.99
2022-10-24T04:23:13.199Z,99.99
2022-10-24T04:24:13.311Z,99.99
2022-10-24T04:25:13.189Z,99.99
2022-10-24T04:26:13.178Z,99.99
2022-10-24T04:27:13.157Z,99.99
2022-10-24T04:28:13.138Z,99.99
2022-10-24T04:29:13.125Z,99.99
2022-10-24T04:30:16.525Z,99.99
2022-10-24T04:31:13.106Z,99.99
2022-10-24T04:32:13.105Z,99.99
2022-10-24T04:33:13.078Z,99.99
2022-10-24T04:34:13.076Z,99.99
2022-10-24T04:35:13.055Z,99.99
2022-10-24T04:36:13.047Z,99.99
2022-10-24T04:37:13.026Z,99.99
2022-10-24T04:38:13.018Z,99.99
2022-10-24T04:39:13.011Z,99.99
2022-10-24T04:40:13.003Z,99.99
2022-10-24T04:41:12.976Z,99.99
2022-10-24T04:42:13.024Z,99.99
2022-10-24T04:43:12.956Z,99.99
2022-10-24T04:44:13.077Z,99.99
2022-10-24T04:45:12.923Z,99.99
2022-10-24T04:46:12.909Z,99.99
2022-10-24T04:47:13.017Z,99.99
2022-10-24T04:48:12.880Z,99.99
2022-10-24T04:49:12.872Z,99.99
2022-10-24T04:50:12.870Z,99.99
2022-10-24T04:51:12.847Z,99.99
2022-10-24T04:52:12.851Z,99.99
2022-10-24T04:53:12.835Z,99.99
2022-10-24T04:54:12.827Z,99.99
2022-10-24T04:55:12.801Z,99.99
2022-10-24T04:56:12.811Z,99.99
2022-10-24T04:57:12.836Z,99.99
2022-10-24T04:58:12.808Z,99.99
2022-10-24T04:59:12.743Z,99.99
2022-10-24T05:00:12.763Z,99.99
2022-10-24T05:01:12.744Z,99.99
2022-10-24T05:02:12.769Z,99.99
2022-10-24T05:03:12.702Z,99.99
2022-10-24T05:04:12.681Z,99.99
2022-10-24T05:05:12.677Z,99.99
2022-10-24T05:06:12.662Z,99.99
2022-10-24T05:07:12.648Z,99.99
2022-10-24T05:08:12.639Z,99.99
2022-10-24T05:09:12.612Z,99.99
2022-10-24T05:10:12.633Z,99.99
2022-10-24T05:11:12.598Z,99.99
2022-10-24T05:12:12.633Z,99.99
2022-10-24T05:13:12.570Z,99.99
2022-10-24T05:14:12.569Z,99.99
2022-10-24T05:15:12.568Z,99.99
2022-10-24T05:16:12.547Z,99.99
2022-10-24T05:17:12.636Z,99.99
2022-10-24T05:18:12.508Z,99.99
2022-10-24T05:19:12.487Z,99.99
2022-10-24T05:20:12.473Z,99.99
2022-10-24T05:21:12.458Z,99.99
2022-10-24T05:22:12.493Z,99.99
2022-10-24T05:23:12.432Z,99.99
2022-10-24T05:24:12.438Z,99.99
2022-10-24T05:25:12.408Z,99.99
2022-10-24T05:26:12.408Z,99.99
2022-10-24T05:27:12.445Z,99.99
2022-10-24T05:28:12.381Z,99.99
2022-10-24T05:29:12.358Z,99.99
2022-10-24T05:30:12.350Z,99.99
2022-10-24T05:31:12.324Z,99.99
2022-10-24T05:32:12.328Z,99.99
2022-10-24T05:33:12.547Z,99.99
2022-10-24T05:34:12.297Z,99.99
2022-10-24T05:35:12.288Z,99.99
2022-10-24T05:36:12.426Z,99.99
2022-10-24T05:37:12.289Z,99.99
2022-10-24T05:38:12.244Z,99.99
2022-10-24T05:39:12.232Z,99.99
2022-10-24T05:40:12.248Z,99.99
2022-10-24T05:41:12.229Z,99.99
2022-10-24T05:42:12.215Z,99.99
2022-10-24T05:43:12.184Z,99.99
2022-10-24T05:44:12.175Z,99.99
2022-10-24T05:45:12.167Z,99.99
2022-10-24T05:46:12.154Z,99.99
2022-10-24T05:47:12.162Z,99.99
2022-10-24T05:48:12.149Z,99.99
2022-10-24T05:49:12.105Z,99.99
2022-10-24T05:50:12.165Z,99.99
2022-10-24T05:51:12.123Z,99.99
2022-10-24T05:52:12.134Z,99.99
2022-10-24T05:53:12.063Z,99.99
2022-10-24T05:55:14.489Z,99.99
2022-10-24T05:56:12.026Z,99.99
2022-10-24T05:57:12.039Z,99.99
2022-10-24T05:58:12.002Z,99.99
2022-10-24T05:59:12.053Z,99.99
2022-10-24T06:00:11.970Z,99.99
2022-10-24T06:01:12.013Z,99.99
2022-10-24T06:02:11.987Z,99.99
2022-10-24T06:03:11.988Z,99.99
2022-10-24T06:04:13.806Z,99.99
2022-10-24T06:05:11.991Z,99.99
2022-10-24T06:06:11.936Z,99.99
2022-10-24T06:07:12.023Z,99.99
2022-10-24T06:08:11.869Z,99.99
2022-10-24T06:09:11.842Z,99.99
2022-10-24T06:10:11.881Z,99.99
2022-10-24T06:11:11.860Z,99.99
2022-10-24T06:12:11.850Z,99.99
2022-10-24T06:13:11.827Z,99.99
2022-10-24T06:14:11.824Z,99.99
2022-10-24T06:15:11.791Z,99.99
2022-10-24T06:16:11.853Z,99.99
2022-10-24T06:17:11.782Z,99.99
2022-10-24T06:18:11.736Z,99.99
2022-10-24T06:19:11.719Z,99.99
2022-10-24T06:20:11.741Z,99.99
2022-10-24T06:21:11.731Z,99.99
2022-10-24T06:22:11.679Z,99.99
2022-10-24T06:23:11.689Z,99.99
2022-10-24T06:24:11.662Z,99.99
2022-10-24T06:25:11.638Z,99.99
2022-10-24T06:26:11.642Z,99.99
2022-10-24T06:27:11.673Z,99.99
2022-10-24T06:28:11.609Z,99.99
2022-10-24T06:29:11.607Z,99.99
2022-10-24T06:30:11.580Z,99.99
2022-10-24T06:31:11.567Z,99.99
2022-10-24T06:32:11.567Z,99.99
2022-10-24T06:33:13.299Z,99.99
2022-10-24T06:34:11.569Z,99.99
2022-10-24T06:35:11.535Z,99.99
2022-10-24T06:36:11.497Z,99.99
2022-10-24T06:37:11.507Z,99.99
2022-10-24T06:38:11.487Z,99.99
2022-10-24T06:39:11.470Z,99.99
2022-10-24T06:40:11.476Z,99.99
2022-10-24T06:41:11.551Z,99.99
2022-10-24T06:42:11.439Z,99.99
2022-10-24T06:43:11.399Z,99.99
2022-10-24T06:44:11.960Z,99.99
2022-10-24T06:45:11.397Z,99.99
2022-10-24T06:46:11.399Z,99.99
2022-10-24T06:47:11.443Z,99.99
2022-10-24T06:48:11.347Z,99.99
2022-10-24T06:49:11.336Z,99.99
2022-10-24T06:50:11.315Z,99.99
2022-10-24T06:51:11.315Z,99.99
2022-10-24T06:52:11.314Z,99.99
2022-10-24T06:53:11.377Z,99.99
2022-10-24T06:54:11.286Z,99.99
2022-10-24T06:55:11.255Z,99.99
2022-10-24T06:56:11.234Z,99.99
2022-10-24T06:57:11.245Z,99.99
2022-10-24T06:58:11.747Z,99.99
2022-10-24T06:59:11.202Z,99.99
2022-10-24T07:00:11.189Z,99.99
2022-10-24T07:01:11.411Z,99.99
2022-10-24T07:02:11.245Z,99.99
2022-10-24T07:03:11.143Z,99.99
2022-10-24T07:04:11.133Z,99.99
2022-10-24T07:05:11.133Z,99.99
2022-10-24T07:06:11.203Z,99.99
2022-10-24T07:07:11.784Z,99.99
2022-10-24T07:08:11.099Z,99.99
2022-10-24T07:09:14.328Z,99.99
2022-10-24T07:10:11.072Z,99.99
2022-10-24T07:11:11.055Z,99.99
2022-10-24T07:12:11.125Z,99.99
2022-10-24T07:13:11.039Z,99.99
2022-10-24T07:14:11.022Z,99.99
2022-10-24T07:15:11.000Z,99.99
2022-10-24T07:16:10.991Z,99.99
2022-10-24T07:17:11.023Z,99.99
2022-10-24T07:18:10.956Z,99.99
2022-10-24T07:19:10.952Z,99.99
2022-10-24T07:20:10.951Z,99.99
2022-10-24T07:21:10.944Z,99.99
2022-10-24T07:22:11.603Z,99.99
2022-10-24T07:23:10.922Z,99.99
2022-10-24T07:24:10.891Z,99.99
2022-10-24T07:25:10.889Z,99.99
2022-10-24T07:26:10.981Z,99.99
2022-10-24T07:27:10.837Z,99.99
2022-10-24T07:28:10.869Z,99.99
2022-10-24T07:29:11.054Z,99.99
2022-10-24T07:30:10.795Z,99.99
2022-10-24T07:31:11.507Z,99.99
2022-10-24T07:32:10.892Z,99.99
2022-10-24T07:33:10.770Z,99.99
2022-10-24T07:34:10.768Z,99.99
2022-10-24T07:35:10.752Z,99.99
2022-10-24T07:36:10.719Z,99.99
2022-10-24T07:37:10.719Z,99.99
2022-10-24T07:38:10.885Z,99.99
2022-10-24T07:39:10.689Z,99.99
2022-10-24T07:40:10.739Z,99.99
2022-10-24T07:41:10.688Z,99.99
2022-10-24T07:42:10.718Z,99.99
2022-10-24T07:43:10.976Z,99.99
2022-10-24T07:44:10.664Z,99.99
2022-10-24T07:45:10.638Z,99.99
2022-10-24T07:46:10.602Z,99.99
2022-10-24T07:47:10.601Z,99.99
2022-10-24T07:48:10.609Z,99.99
2022-10-24T07:49:10.587Z,99.99
2022-10-24T07:50:10.578Z,99.99
2022-10-24T07:51:10.537Z,99.99
2022-10-24T07:52:10.537Z,99.99
2022-10-24T07:53:10.513Z,99.99
2022-10-24T07:54:10.579Z,99.99
2022-10-24T07:55:11.552Z,99.99
2022-10-24T07:56:10.686Z,99.99
2022-10-24T07:57:10.485Z,99.99
2022-10-24T07:58:10.448Z,99.99
2022-10-24T07:59:29.889Z,99.99
2022-10-24T08:00:11.418Z,99.99
2022-10-24T08:01:10.491Z,99.99
2022-10-24T08:02:10.395Z,99.99
2022-10-24T08:03:17.419Z,99.99
2022-10-24T08:04:10.365Z,99.99
2022-10-24T08:05:19.471Z,99.99
2022-10-24T08:06:11.345Z,99.99
2022-10-24T08:07:10.540Z,99.99
2022-10-24T08:08:35.643Z,99.99
2022-10-24T08:09:11.306Z,99.99
2022-10-24T08:10:10.276Z,99.80
2022-10-24T08:11:10.277Z,99.90
2022-10-24T08:12:10.307Z,99.99
2022-10-24T08:13:12.847Z,99.69
2022-10-24T08:14:10.262Z,99.60
2022-10-24T08:15:10.227Z,99.29
2022-10-24T08:16:10.227Z,99.35
2022-10-24T08:17:10.454Z,98.94
2022-10-24T08:18:10.203Z,98.84
2022-10-24T08:19:10.944Z,99.04
2022-10-24T08:20:10.158Z,98.94
2022-10-24T08:21:10.151Z,98.94
2022-10-24T08:22:10.233Z,98.94
2022-10-24T08:23:10.122Z,98.79
2022-10-24T08:24:10.117Z,98.39
2022-10-24T08:25:10.108Z,98.28
2022-10-24T08:26:10.101Z,97.98
2022-10-24T08:27:10.076Z,97.67
2022-10-24T08:28:10.065Z,98.95
2022-10-24T08:29:10.043Z,98.34
2022-10-24T08:30:10.023Z,98.50
2022-10-24T08:31:10.020Z,97.99
2022-10-24T08:32:10.038Z,97.69
2022-10-24T08:33:09.998Z,96.88
2022-10-24T08:34:09.984Z,96.42
2022-10-24T08:35:09.980Z,96.73
2022-10-24T08:36:09.964Z,96.12
2022-10-24T08:37:09.970Z,95.72
2022-10-24T08:38:10.011Z,95.72
2022-10-24T08:39:09.924Z,95.72
2022-10-24T08:40:09.937Z,95.92
2022-10-24T08:41:09.915Z,96.33
2022-10-24T08:42:09.920Z,96.53
2022-10-24T08:43:09.881Z,96.93
2022-10-24T08:44:09.919Z,96.63
2022-10-24T08:45:09.936Z,96.53
2022-10-24T08:46:09.892Z,96.12
2022-10-24T08:47:09.825Z,96.22
2022-10-24T08:48:09.821Z,96.53
2022-10-24T08:49:11.120Z,96.42
2022-10-24T08:50:09.793Z,96.42
2022-10-24T08:51:09.786Z,95.72
2022-10-24T08:52:09.756Z,96.12
2022-10-24T08:53:09.785Z,95.92
2022-10-24T08:54:09.749Z,96.18
2022-10-24T08:55:20.275Z,95.57
2022-10-24T08:56:10.732Z,95.47
2022-10-24T08:57:09.828Z,95.37
2022-10-24T08:58:09.688Z,95.67
2022-10-24T08:59:09.651Z,96.28
2022-10-24T09:00:09.642Z,95.78
2022-10-24T09:01:09.727Z,95.87
2022-10-24T09:02:13.395Z,95.37
2022-10-24T09:03:09.610Z,95.27
2022-10-24T09:04:09.609Z,94.76
2022-10-24T09:05:09.603Z,94.56
2022-10-24T09:06:09.568Z,94.46
2022-10-24T09:07:09.560Z,94.42
2022-10-24T09:08:09.553Z,94.42
2022-10-24T09:09:09.527Z,94.42
2022-10-24T09:10:09.541Z,94.51
2022-10-24T09:11:11.034Z,94.11
2022-10-24T09:12:09.511Z,93.91
2022-10-24T09:13:09.541Z,94.11
2022-10-24T09:14:09.459Z,94.01
2022-10-24T09:15:09.474Z,94.67
2022-10-24T09:16:09.438Z,94.27
2022-10-24T09:17:09.466Z,94.27
2022-10-24T09:18:09.410Z,94.17
2022-10-24T09:19:09.389Z,93.56
2022-10-24T09:20:09.423Z,93.36
2022-10-24T09:21:09.975Z,93.66
2022-10-24T09:22:09.375Z,94.17
2022-10-24T09:23:09.367Z,93.96
2022-10-24T09:24:09.357Z,93.46
2022-10-24T09:25:09.428Z,93.16
2022-10-24T09:26:09.325Z,92.76
2022-10-24T09:27:09.329Z,93.05
2022-10-24T09:28:09.281Z,93.26
2022-10-24T09:29:09.336Z,93.05
2022-10-24T09:30:09.251Z,92.55
2022-10-24T09:31:09.614Z,92.45
2022-10-24T09:32:09.337Z,92.55
2022-10-24T09:33:09.258Z,92.65
2022-10-24T09:34:09.204Z,92.25
2022-10-24T09:35:09.193Z,92.21
2022-10-24T09:36:09.239Z,92.41
2022-10-24T09:37:09.351Z,92.50
2022-10-24T09:38:09.189Z,92.10
2022-10-24T09:39:09.164Z,92.30
2022-10-24T09:40:09.120Z,92.00
2022-10-24T09:41:09.130Z,91.80
2022-10-24T09:42:09.131Z,91.60
2022-10-24T09:43:09.105Z,91.46
2022-10-24T09:44:09.054Z,91.35
2022-10-24T09:45:09.034Z,90.65
2022-10-24T09:46:09.029Z,90.55
2022-10-24T09:47:09.132Z,90.75
2022-10-24T09:48:09.047Z,91.25
2022-10-24T09:49:09.003Z,90.85
2022-10-24T09:50:09.042Z,90.34
2022-10-24T09:51:08.973Z,90.45
2022-10-24T09:52:09.002Z,90.55
2022-10-24T09:53:09.000Z,90.45
2022-10-24T09:54:08.952Z,90.91
2022-10-24T09:55:08.946Z,90.70
2022-10-24T09:56:08.906Z,90.50
2022-10-24T09:57:08.935Z,90.20
2022-10-24T09:58:08.946Z,89.50
2022-10-24T09:59:08.899Z,89.39
2022-10-24T10:00:08.871Z,89.19
2022-10-24T10:01:08.983Z,89.50
2022-10-24T10:02:09.020Z,89.19
2022-10-24T10:03:08.839Z,88.79
2022-10-24T10:04:10.124Z,88.68
2022-10-24T10:05:08.819Z,88.39
2022-10-24T10:06:08.788Z,88.14
2022-10-24T10:07:08.779Z,87.94
2022-10-24T10:08:08.767Z,87.84
2022-10-24T10:09:08.780Z,87.74
2022-10-24T10:10:08.735Z,87.54
2022-10-24T10:11:08.838Z,87.63
2022-10-24T10:12:08.712Z,87.74
2022-10-24T10:13:08.694Z,87.74
2022-10-24T10:14:08.686Z,87.23
2022-10-24T10:15:08.853Z,87.34
2022-10-24T10:16:09.956Z,87.13
2022-10-24T10:17:08.658Z,87.29
2022-10-24T10:18:08.657Z,87.70
2022-10-24T10:19:08.622Z,87.19
2022-10-24T10:20:08.611Z,87.19
2022-10-24T10:21:08.632Z,86.89
2022-10-24T10:22:08.599Z,86.49
2022-10-24T10:23:08.578Z,86.69
2022-10-24T10:24:08.595Z,86.58
2022-10-24T10:25:08.646Z,86.69
2022-10-24T10:26:08.526Z,86.38
2022-10-24T10:27:08.567Z,86.58
2022-10-24T10:28:08.546Z,86.79
2022-10-24T10:29:08.600Z,86.18
2022-10-24T10:30:08.481Z,86.08
2022-10-24T10:31:08.465Z,86.69
2022-10-24T10:32:08.479Z,86.29
2022-10-24T10:33:08.454Z,86.18
2022-10-24T10:34:08.425Z,85.88
2022-10-24T10:35:08.413Z,86.08
2022-10-24T10:36:08.435Z,85.34
2022-10-24T10:37:08.381Z,85.68
2022-10-24T10:38:08.417Z,85.74
2022-10-24T10:39:08.537Z,85.84
2022-10-24T10:40:08.350Z,85.94
2022-10-24T10:41:08.346Z,86.08
2022-10-24T10:42:08.330Z,85.58
2022-10-24T10:43:08.304Z,85.48
2022-10-24T10:44:08.323Z,85.58
2022-10-24T10:45:08.275Z,85.64
2022-10-24T10:46:08.255Z,85.54
2022-10-24T10:47:08.327Z,85.54
2022-10-24T10:48:08.263Z,85.48
2022-10-24T10:49:08.232Z,85.74
2022-10-24T10:50:08.339Z,85.64
2022-10-24T10:51:08.588Z,85.64
2022-10-24T10:52:08.203Z,85.84
2022-10-24T10:53:08.196Z,86.18
2022-10-24T10:54:08.143Z,85.78
2022-10-24T10:55:08.253Z,85.17
2022-10-24T10:56:08.140Z,85.08
2022-10-24T10:57:08.116Z,85.08
2022-10-24T10:58:12.924Z,84.83
2022-10-24T10:59:09.352Z,84.94
2022-10-24T11:00:08.103Z,84.94
2022-10-24T11:01:08.117Z,85.03
2022-10-24T11:02:08.192Z,84.63
2022-10-24T11:03:08.054Z,85.03
2022-10-24T11:04:08.035Z,84.83
2022-10-24T11:05:08.053Z,84.63
2022-10-24T11:06:07.992Z,84.63
2022-10-24T11:07:08.003Z,84.63
2022-10-24T11:08:07.980Z,84.83
2022-10-24T11:09:07.951Z,84.83
2022-10-24T11:10:08.000Z,84.43
2022-10-24T11:11:07.970Z,84.03
2022-10-24T11:12:07.910Z,83.93
2022-10-24T11:13:07.921Z,84.03
2022-10-24T11:14:07.932Z,83.93
2022-10-24T11:15:07.980Z,83.93
2022-10-24T11:16:07.920Z,84.03
2022-10-24T11:17:11.007Z,84.23
2022-10-24T11:18:07.873Z,83.83
2022-10-24T11:19:07.839Z,83.83
2022-10-24T11:20:07.819Z,83.99
2022-10-24T11:21:07.823Z,84.09
2022-10-24T11:22:07.794Z,83.99
2022-10-24T11:23:07.804Z,84.09
2022-10-24T11:24:09.900Z,83.69
2022-10-24T11:25:08.751Z,83.59
2022-10-24T11:26:07.764Z,83.69
2022-10-24T11:27:07.750Z,83.48
2022-10-24T11:28:07.731Z,83.39
2022-10-24T11:29:08.259Z,83.28
2022-10-24T11:30:07.692Z,83.48
2022-10-24T11:31:07.703Z,83.48
2022-10-24T11:32:07.787Z,83.39
2022-10-24T11:33:07.669Z,83.69
2022-10-24T11:34:07.652Z,83.39
2022-10-24T11:35:07.612Z,83.28
2022-10-24T11:36:07.608Z,83.39
2022-10-24T11:37:07.600Z,83.28
2022-10-24T11:38:07.588Z,83.28
2022-10-24T11:39:08.648Z,83.39
2022-10-24T11:40:07.571Z,83.39
2022-10-24T11:41:07.539Z,83.48
2022-10-24T11:42:07.533Z,83.28
2022-10-24T11:43:07.522Z,83.39
2022-10-24T11:44:07.548Z,83.08
2022-10-24T11:45:07.501Z,83.18
2022-10-24T11:46:07.491Z,82.78
2022-10-24T11:47:07.462Z,83.18
2022-10-24T11:48:07.645Z,82.78
2022-10-24T11:49:07.458Z,82.48
2022-10-24T11:50:07.535Z,82.78
2022-10-24T11:51:07.529Z,82.38
2022-10-24T11:52:07.679Z,82.58
2022-10-24T11:53:07.417Z,82.07
2022-10-24T11:54:07.411Z,82.07
2022-10-24T11:55:07.548Z,81.87
2022-10-24T11:56:07.428Z,82.34
2022-10-24T11:57:07.371Z,82.14
2022-10-24T11:58:07.328Z,82.24
2022-10-24T11:59:07.348Z,82.04
2022-10-24T12:00:07.315Z,82.24
2022-10-24T12:01:07.684Z,82.24
2022-10-24T12:02:07.316Z,82.14
2022-10-24T12:03:07.739Z,81.84
2022-10-24T12:04:07.549Z,82.04
2022-10-24T12:05:07.815Z,82.04
2022-10-24T12:06:07.244Z,82.04
2022-10-24T12:07:07.212Z,81.93
2022-10-24T12:08:07.927Z,81.93
2022-10-24T12:09:07.191Z,82.14
2022-10-24T12:10:07.625Z,82.04
2022-10-24T12:11:07.248Z,81.93
2022-10-24T12:12:07.146Z,81.93
2022-10-24T12:13:07.138Z,81.84
2022-10-24T12:14:07.137Z,81.43
2022-10-24T12:15:07.118Z,81.29
2022-10-24T12:16:07.110Z,81.90
2022-10-24T12:17:07.094Z,81.49
2022-10-24T12:18:07.099Z,81.49
2022-10-24T12:19:07.091Z,81.39
2022-10-24T12:20:07.057Z,81.59
2022-10-24T12:21:07.030Z,81.19
2022-10-24T12:22:07.047Z,81.19
2022-10-24T12:23:07.015Z,81.29
2022-10-24T12:24:07.005Z,81.70
2022-10-24T12:25:07.003Z,81.39
2022-10-24T12:26:08.120Z,81.49
2022-10-24T12:27:06.964Z,81.59
2022-10-24T12:28:08.035Z,81.39
2022-10-24T12:29:07.384Z,81.70
2022-10-24T12:30:06.922Z,81.70
2022-10-24T12:31:06.895Z,81.39
2022-10-24T12:32:06.928Z,81.19
2022-10-24T12:33:06.917Z,81.29
2022-10-24T12:34:06.956Z,81.13
2022-10-24T12:36:07.837Z,81.03
2022-10-24T12:37:06.843Z,81.23
2022-10-24T12:38:06.954Z,81.19
2022-10-24T12:39:06.868Z,80.89
2022-10-24T12:40:07.116Z,81.09
2022-10-24T12:41:06.886Z,80.79
2022-10-24T12:42:06.823Z,80.99
2022-10-24T12:43:06.752Z,80.79
2022-10-24T12:44:06.745Z,80.99
2022-10-24T12:45:06.726Z,80.89
2022-10-24T12:46:13.025Z,80.99
2022-10-24T12:47:07.704Z,80.99
2022-10-24T12:48:06.747Z,80.69
2022-10-24T12:49:06.705Z,80.79
2022-10-24T12:50:06.673Z,80.69
2022-10-24T12:51:06.699Z,81.09
2022-10-24T12:52:06.635Z,80.89
2022-10-24T12:53:06.779Z,80.99
2022-10-24T12:54:06.785Z,80.49
2022-10-24T12:55:06.612Z,80.39